Time;durP1;ratioP1;P1;durP2;ratioP2;P2;SDS_P1;SDS_P2;PMS_P1;PMS_P2;Temp;Humidity;BMP_temperature;BMP_pressure;BME280_temperature;BME280_humidity;BME280_pressure;Samples;Min_cycle;Max_cycle;Signal;HPM_P1;HPM_P2
2022/08/18 00:09:05;;;;;;;0.20;0.00;;;21.10;99.90;;;;;;26149358;22;20211;-70
2022/08/18 00:19:08;;;;;;;0.20;0.00;;;21.00;99.90;;;;;;26145953;22;20172;-68
2022/08/18 00:29:13;;;;;;;0.20;0.10;;;20.40;99.90;;;;;;26176272;22;20195;-67
2022/08/18 00:39:17;;;;;;;0.20;0.10;;;20.30;99.90;;;;;;26172266;22;20169;-68
2022/08/18 00:49:22;;;;;;;0.20;0.10;;;20.20;99.90;;;;;;26146457;22;20194;-68
2022/08/18 00:59:31;;;;;;;0.20;0.00;;;20.30;99.90;;;;;;26173520;22;20167;-69
2022/08/18 01:09:36;;;;;;;0.20;0.07;;;20.10;99.90;;;;;;26173315;22;20203;-70
2022/08/18 01:30:08;;;;;;;0.20;0.00;;;20.20;99.90;;;;;;26145912;22;20190;-69
2022/08/18 01:40:16;;;;;;;0.20;0.10;;;20.00;99.90;;;;;;26171699;22;20219;-71
2022/08/18 01:50:43;;;;;;;0.20;0.00;;;20.10;99.90;;;;;;26170789;22;20192;-70
2022/08/18 02:00:46;;;;;;;0.20;0.10;;;20.50;99.90;;;;;;26169078;22;20170;-72
2022/08/18 02:10:51;;;;;;;0.20;0.10;;;20.50;99.90;;;;;;26170262;22;20195;-70
2022/08/18 02:20:55;;;;;;;0.20;0.03;;;20.60;99.90;;;;;;26141826;22;20167;-70
2022/08/18 02:31:05;;;;;;;0.20;0.10;;;20.70;99.90;;;;;;26170140;22;20180;-70
2022/08/18 02:41:14;;;;;;;0.20;0.10;;;20.50;99.90;;;;;;26171531;22;20177;-71
2022/08/18 02:51:20;;;;;;;0.20;0.10;;;20.70;99.90;;;;;;26147663;22;20194;-70
2022/08/18 03:01:30;;;;;;;0.20;0.10;;;20.60;99.90;;;;;;26178255;22;20159;-72
2022/08/18 03:11:36;;;;;;;0.20;0.10;;;20.60;99.90;;;;;;26178516;22;20207;-71
2022/08/18 03:21:40;;;;;;;0.20;0.10;;;20.50;99.90;;;;;;26176845;22;20170;-72
2022/08/18 03:31:49;;;;;;;0.20;0.10;;;20.40;99.90;;;;;;26179016;22;20198;-71
2022/08/18 03:41:54;;;;;;;0.20;0.10;;;20.50;99.90;;;;;;26177142;22;20193;-70
2022/08/18 03:52:08;;;;;;;0.20;0.10;;;20.30;99.90;;;;;;26150940;22;20203;-69
2022/08/18 04:02:12;;;;;;;0.20;0.10;;;20.40;99.90;;;;;;26176976;22;20207;-71
2022/08/18 04:12:17;;;;;;;0.20;0.10;;;20.50;99.90;;;;;;26170197;22;20199;-71
2022/08/18 04:22:21;;;;;;;0.20;0.00;;;20.50;99.90;;;;;;26173608;22;20942;-71
2022/08/18 04:32:26;;;;;;;0.20;0.10;;;20.40;99.90;;;;;;26172209;22;20187;-69
2022/08/18 04:42:32;;;;;;;0.20;0.00;;;20.20;99.90;;;;;;26172514;22;20228;-70
2022/08/18 05:03:04;;;;;;;0.20;0.10;;;20.50;99.90;;;;;;26171483;22;20183;-70
2022/08/18 05:13:09;;;;;;;0.20;0.00;;;20.40;99.90;;;;;;26142924;22;20195;-69
2022/08/18 05:23:15;;;;;;;0.20;0.00;;;20.40;99.90;;;;;;26144634;22;20603;-70
2022/08/18 05:33:20;;;;;;;0.20;0.00;;;20.60;99.90;;;;;;26170321;22;20160;-72
2022/08/18 05:43:24;;;;;;;0.20;0.10;;;20.70;99.90;;;;;;26146722;22;20183;-71
2022/08/18 06:03:52;;;;;;;0.20;0.00;;;21.00;99.90;;;;;;26168035;22;20187;-69
2022/08/18 06:14:00;;;;;;;0.20;0.10;;;21.00;99.90;;;;;;26144394;22;20195;-66
2022/08/18 06:24:17;;;;;;;0.20;0.10;;;20.90;99.90;;;;;;26177340;22;20184;-68
2022/08/18 06:34:41;;;;;;;0.20;0.00;;;20.90;99.90;;;;;;26155092;22;20175;-70
2022/08/18 06:44:49;;;;;;;0.20;0.00;;;21.00;99.90;;;;;;26183211;22;20187;-68
2022/08/18 06:54:56;;;;;;;0.20;0.00;;;21.10;99.90;;;;;;26174764;22;20160;-70
2022/08/18 07:05:04;;;;;;;0.20;0.00;;;21.40;99.90;;;;;;26169945;22;20206;-69
2022/08/18 07:15:13;;;;;;;0.20;0.00;;;21.40;99.90;;;;;;26175745;22;20198;-69
2022/08/18 07:25:23;;;;;;;0.20;0.00;;;21.50;99.90;;;;;;26180509;22;20192;-68
2022/08/18 07:35:37;;;;;;;0.20;0.00;;;21.80;99.90;;;;;;26176490;22;20160;-69
2022/08/18 07:45:44;;;;;;;0.20;0.00;;;21.90;99.90;;;;;;26175029;22;20180;-67
2022/08/18 07:55:56;;;;;;;0.20;0.00;;;22.00;99.90;;;;;;26142907;22;20171;-70
2022/08/18 08:06:07;;;;;;;0.20;0.00;;;22.20;99.90;;;;;;26166547;22;20195;-68
2022/08/18 08:16:19;;;;;;;0.20;0.08;;;22.60;99.90;;;;;;26167013;22;20274;-69
2022/08/18 08:26:36;;;;;;;0.20;0.00;;;22.70;99.90;;;;;;26169706;22;20190;-71
2022/08/18 08:36:45;;;;;;;0.20;0.00;;;23.20;99.90;;;;;;26169880;22;20152;-69
2022/08/18 08:46:55;;;;;;;0.20;0.00;;;23.20;99.90;;;;;;26169622;22;20179;-69
2022/08/18 08:57:02;;;;;;;0.20;0.00;;;23.20;99.90;;;;;;26169954;22;20167;-68
2022/08/18 09:07:21;;;;;;;0.20;0.00;;;23.20;99.90;;;;;;26170446;22;20206;-69
2022/08/18 09:17:58;;;;;;;0.20;0.00;;;23.20;99.90;;;;;;26142552;22;20202;-69
2022/08/18 09:28:11;;;;;;;0.20;0.00;;;23.50;99.90;;;;;;26141038;22;20186;-69
2022/08/18 09:48:45;;;;;;;0.20;0.00;;;24.70;99.90;;;;;;26103812;22;20187;-71
2022/08/18 09:58:57;;;;;;;0.20;0.00;;;25.50;99.90;;;;;;26167529;22;20177;-70
2022/08/18 10:09:07;;;;;;;0.20;0.00;;;25.80;99.90;;;;;;26140695;22;20290;-68
2022/08/18 10:19:38;;;;;;;0.20;0.00;;;25.90;99.90;;;;;;26166199;22;20156;-70
2022/08/18 10:30:00;;;;;;;0.20;0.00;;;25.90;99.90;;;;;;26134342;22;20187;-68
2022/08/18 10:40:20;;;;;;;0.20;0.10;;;26.70;99.90;;;;;;26140386;22;20182;-69
2022/08/18 10:50:28;;;;;;;0.20;0.00;;;27.10;99.90;;;;;;26165263;22;20581;-69
2022/08/18 11:00:46;;;;;;;0.20;0.00;;;27.00;99.90;;;;;;26164608;22;20163;-69
2022/08/18 11:10:50;;;;;;;0.20;0.00;;;27.60;99.90;;;;;;26167265;22;20195;-68
2022/08/18 11:21:32;;;;;;;0.20;0.00;;;28.40;99.90;;;;;;26146194;22;20160;-68
2022/08/18 11:31:40;;;;;;;0.20;0.00;;;29.60;99.90;;;;;;26144508;22;20587;-68
2022/08/18 11:41:48;;;;;;;0.20;0.00;;;30.30;99.90;;;;;;26142630;22;20164;-71
2022/08/18 11:51:58;;;;;;;0.20;0.00;;;30.20;99.90;;;;;;26171072;22;20183;-67
2022/08/18 12:02:09;;;;;;;0.20;0.00;;;30.30;99.90;;;;;;26138995;22;20186;-67
2022/08/18 12:12:21;;;;;;;0.20;0.00;;;30.70;99.90;;;;;;26139312;22;20191;-68
2022/08/18 12:22:30;;;;;;;0.20;0.00;;;31.40;99.90;;;;;;26140977;22;20167;-68
2022/08/18 12:32:35;;;;;;;0.20;0.00;;;31.20;99.90;;;;;;26141382;22;20171;-67
2022/08/18 12:42:54;;;;;;;0.20;0.00;;;31.50;99.90;;;;;;26143301;22;20189;-67
2022/08/18 12:52:58;;;;;;;0.20;0.00;;;31.70;99.90;;;;;;26165746;22;20187;-67
2022/08/18 13:03:04;;;;;;;0.20;0.00;;;32.30;99.90;;;;;;26168835;22;20175;-68
2022/08/18 13:13:08;;;;;;;0.20;0.00;;;32.70;99.90;;;;;;26169436;22;20195;-69
2022/08/18 13:23:13;;;;;;;0.20;0.00;;;32.20;99.90;;;;;;26168443;22;20164;-68
2022/08/18 13:33:21;;;;;;;0.32;0.32;;;33.00;99.90;;;;;;26166326;22;20187;-69
2022/08/18 13:43:46;;;;;;;0.20;0.00;;;32.10;99.90;;;;;;26166321;22;20171;-68
2022/08/18 13:53:51;;;;;;;0.20;0.00;;;30.80;99.90;;;;;;26166077;22;20184;-68
2022/08/18 14:04:16;;;;;;;0.20;0.00;;;31.40;99.90;;;;;;26164553;22;20192;-68
2022/08/18 14:14:23;;;;;;;0.20;0.00;;;31.50;99.90;;;;;;26164246;22;20254;-69
2022/08/18 14:34:52;;;;;;;0.20;0.00;;;30.70;99.90;;;;;;26167589;22;20938;-70
2022/08/18 14:45:05;;;;;;;0.20;0.00;;;27.60;99.90;;;;;;26141213;22;20187;-68
2022/08/18 14:55:34;;;;;;;0.20;0.10;;;27.10;99.90;;;;;;26143837;22;20182;-68
2022/08/18 15:05:39;;;;;;;0.20;0.00;;;26.40;99.90;;;;;;26173247;22;20195;-69
2022/08/18 15:15:45;;;;;;;0.20;0.00;;;25.90;99.90;;;;;;26170406;22;20198;-68
2022/08/18 15:25:56;;;;;;;0.20;0.00;;;25.50;99.90;;;;;;26172147;22;20183;-70
2022/08/18 15:36:03;;;;;;;0.20;0.00;;;24.20;99.90;;;;;;26170397;22;20151;-68
2022/08/18 15:46:13;;;;;;;0.20;0.00;;;23.20;99.90;;;;;;26115702;22;20183;-68
2022/08/18 15:56:21;;;;;;;0.20;0.00;;;21.70;99.90;;;;;;26170659;22;20167;-69
2022/08/18 16:06:30;;;;;;;0.20;0.00;;;21.10;99.90;;;;;;26144260;22;20188;-69
2022/08/18 16:16:35;;;;;;;0.20;0.00;;;20.70;99.90;;;;;;26170482;22;20188;-69
2022/08/18 16:26:40;;;;;;;0.20;0.10;;;20.80;99.90;;;;;;26170689;22;20190;-70
2022/08/18 16:36:44;;;;;;;0.20;0.10;;;20.80;99.90;;;;;;26169951;22;20163;-69
2022/08/18 16:46:50;;;;;;;0.20;0.00;;;20.20;99.90;;;;;;26171411;22;20192;-70
2022/08/18 16:56:54;;;;;;;0.20;0.00;;;20.10;99.90;;;;;;26142369;22;20164;-71
2022/08/18 17:07:00;;;;;;;0.20;0.00;;;20.60;99.90;;;;;;26114534;22;20206;-71
2022/08/18 17:17:06;;;;;;;0.20;0.03;;;20.70;99.90;;;;;;26167946;22;20191;-70
2022/08/18 17:27:15;;;;;;;0.20;0.07;;;20.80;99.90;;;;;;26144211;22;20190;-68
2022/08/18 17:37:30;;;;;;;0.20;0.00;;;21.10;99.90;;;;;;26169197;22;20171;-72
2022/08/18 17:47:42;;;;;;;0.20;0.00;;;21.60;99.90;;;;;;26167948;22;20187;-72
2022/08/18 17:57:54;;;;;;;0.20;0.00;;;22.20;99.90;;;;;;26140239;22;20163;-72
2022/08/18 18:08:03;;;;;;;0.20;0.00;;;22.60;99.90;;;;;;26166386;22;20187;-72
2022/08/18 18:18:29;;;;;;;0.20;0.00;;;21.70;99.90;;;;;;26140290;22;20206;-73
2022/08/18 18:28:36;;;;;;;0.20;0.10;;;21.90;99.90;;;;;;26136358;22;20237;-71
2022/08/18 18:38:47;;;;;;;0.20;0.00;;;21.70;99.90;;;;;;26137860;22;20167;-72
2022/08/18 18:49:02;;;;;;;0.20;0.00;;;21.60;99.90;;;;;;26165153;22;20179;-71
2022/08/18 18:59:19;;;;;;;0.20;0.10;;;20.90;99.90;;;;;;26165301;22;20164;-73
2022/08/18 19:09:30;;;;;;;0.20;0.10;;;20.60;99.90;;;;;;26135455;22;20206;-72
2022/08/18 19:19:41;;;;;;;0.20;0.10;;;20.60;99.90;;;;;;26132625;22;20170;-71
2022/08/18 19:29:47;;;;;;;0.20;0.10;;;20.50;99.90;;;;;;26139046;22;20194;-72
2022/08/18 19:40:02;;;;;;;0.20;0.00;;;20.30;99.90;;;;;;26169166;22;20171;-72
2022/08/18 19:50:15;;;;;;;0.20;0.00;;;20.20;99.90;;;;;;26115543;22;20184;-75
2022/08/18 20:00:27;;;;;;;0.20;0.10;;;19.90;99.90;;;;;;26144681;22;20219;-71
2022/08/18 20:11:03;;;;;;;0.20;0.00;;;19.90;99.90;;;;;;26146920;22;20230;-70
2022/08/18 20:21:51;;;;;;;0.20;0.10;;;19.90;99.90;;;;;;26129576;22;20167;-70
2022/08/18 20:32:00;;;;;;;0.20;0.10;;;20.00;99.90;;;;;;26157122;22;20202;-69
2022/08/18 20:42:08;;;;;;;0.20;0.00;;;20.00;99.90;;;;;;26139018;22;20166;-70
2022/08/18 20:52:23;;;;;;;0.20;0.00;;;20.00;99.90;;;;;;26140128;22;20186;-70
2022/08/18 21:02:39;;;;;;;0.20;0.00;;;20.30;99.90;;;;;;26169381;22;20629;-69
2022/08/18 21:12:52;;;;;;;0.20;0.00;;;20.20;99.90;;;;;;26169938;22;20221;-70
2022/08/18 21:23:07;;;;;;;0.20;0.00;;;20.50;99.90;;;;;;26170120;22;20159;-70
2022/08/18 21:33:20;;;;;;;0.20;0.00;;;20.30;99.90;;;;;;26168760;22;20183;-69
2022/08/18 21:43:41;;;;;;;0.20;0.10;;;20.30;99.90;;;;;;26141068;22;20210;-67
2022/08/18 21:53:52;;;;;;;0.20;0.00;;;20.80;99.90;;;;;;26168681;22;20187;-69
2022/08/18 22:03:59;;;;;;;0.20;0.00;;;21.10;99.90;;;;;;26166187;22;20175;-69
2022/08/18 22:14:17;;;;;;;0.20;0.00;;;20.90;99.90;;;;;;26141622;22;20203;-70
2022/08/18 22:24:29;;;;;;;0.20;0.10;;;20.50;99.90;;;;;;26139063;22;20159;-68
2022/08/18 22:34:34;;;;;;;0.20;0.10;;;20.50;99.90;;;;;;26140564;22;20198;-69
2022/08/18 22:44:40;;;;;;;0.20;0.00;;;20.20;99.90;;;;;;26167063;22;20163;-69
2022/08/18 22:54:44;;;;;;;0.20;0.00;;;20.00;99.90;;;;;;26142299;22;20213;-67
2022/08/18 23:04:49;;;;;;;0.20;0.10;;;20.00;99.90;;;;;;26170411;22;20267;-70
2022/08/18 23:14:53;;;;;;;0.20;0.00;;;19.80;99.90;;;;;;26148862;22;20362;-68
2022/08/18 23:24:59;;;;;;;0.20;0.00;;;19.80;99.90;;;;;;26176818;22;20197;-69
2022/08/18 23:35:11;;;;;;;0.20;0.10;;;20.10;99.90;;;;;;26120602;22;20216;-69
2022/08/18 23:45:16;;;;;;;0.20;0.07;;;20.20;99.90;;;;;;26176753;22;20167;-69
2022/08/18 23:55:20;;;;;;;0.20;0.00;;;20.30;99.90;;;;;;26174992;22;20183;-69
